Time;durP1;ratioP1;P1;durP2;ratioP2;P2;SDS_P1;SDS_P2;PMS_P1;PMS_P2;Temp;Humidity;BMP_temperature;BMP_pressure;BME280_temperature;BME280_humidity;BME280_pressure;Samples;Min_cycle;Max_cycle;Signal;HPM_P1;HPM_P2
2022/10/19 00:00:05;;;;;;;12.05;7.75;;;;;;;19.20;100.00;99845.56;4178607;83;28539;-87
2022/10/19 00:06:25;;;;;;;4.28;2.45;;;;;;;18.98;100.00;99831.58;4240566;82;28527;-87
2022/10/19 00:12:26;;;;;;;2.95;2.27;;;;;;;18.77;100.00;99837.48;4260165;82;28692;-87
2022/10/19 00:18:27;;;;;;;3.17;2.65;;;;;;;18.98;100.00;99835.66;4241360;81;28522;-88
2022/10/19 00:24:29;;;;;;;4.03;2.95;;;;;;;19.06;100.00;99841.16;4271972;81;28487;-87
2022/10/19 00:30:30;;;;;;;4.50;3.70;;;;;;;18.87;100.00;99840.25;4265585;83;28482;-87
2022/10/19 00:36:36;;;;;;;4.67;3.80;;;;;;;18.61;100.00;99847.48;4259293;81;28471;-87
2022/10/19 00:42:39;;;;;;;5.28;3.60;;;;;;;18.43;100.00;99843.31;4293059;81;28598;-86
2022/10/19 00:48:40;;;;;;;4.90;3.70;;;;;;;18.38;100.00;99837.30;4149843;83;28463;-87
2022/10/19 00:54:44;;;;;;;4.05;3.27;;;;;;;17.79;100.00;99850.75;4127995;85;28555;-87
2022/10/19 01:00:46;;;;;;;5.15;3.20;;;;;;;18.33;100.00;99834.56;4137888;84;28482;-88
2022/10/19 01:06:47;;;;;;;5.45;4.05;;;;;;;17.92;100.00;99833.70;4198590;84;28483;-87
2022/10/19 01:13:15;;;;;;;4.65;3.45;;;;;;;17.67;100.00;99825.08;4159559;85;28529;-87
2022/10/19 01:19:31;;;;;;;6.00;3.87;;;;;;;17.83;100.00;99821.14;4093448;85;28581;-87
2022/10/19 01:25:50;;;;;;;5.17;4.10;;;;;;;17.64;100.00;99816.61;4146195;85;28588;-87
2022/10/19 01:32:03;;;;;;;5.50;4.15;;;;;;;17.87;100.00;99804.56;4129554;85;28540;-86
2022/10/19 01:38:27;;;;;;;5.60;4.10;;;;;;;17.57;100.00;99797.80;4143983;84;28514;-88
2022/10/19 01:44:46;;;;;;;6.33;4.72;;;;;;;18.10;100.00;99793.88;4232269;82;36056;-90
2022/10/19 01:51:17;;;;;;;6.80;4.25;;;;;;;18.04;100.00;99770.98;4278830;82;28487;-90
2022/10/19 01:57:30;;;;;;;6.95;5.10;;;;;;;18.02;100.00;99769.04;4306607;82;28494;-88
2022/10/19 02:03:33;;;;;;;9.38;5.42;;;;;;;17.79;100.00;99796.88;4306926;82;28604;-87
2022/10/19 02:09:34;;;;;;;7.75;5.15;;;;;;;18.01;100.00;99787.25;4290499;81;28489;-87
2022/10/19 02:15:39;;;;;;;7.53;5.05;;;;;;;17.64;100.00;99795.69;4298570;82;28516;-86
2022/10/19 02:21:41;;;;;;;8.18;5.42;;;;;;;18.05;100.00;99786.22;4273145;82;28511;-87
2022/10/19 02:27:42;;;;;;;7.72;5.30;;;;;;;17.48;100.00;99787.95;4283999;81;28561;-87
2022/10/19 02:33:44;;;;;;;7.53;5.10;;;;;;;17.42;100.00;99782.18;4280264;81;28477;-89
2022/10/19 02:39:47;;;;;;;8.00;5.78;;;;;;;17.45;100.00;99781.69;4251707;82;28523;-88
2022/10/19 02:45:57;;;;;;;9.25;6.05;;;;;;;17.40;100.00;99765.31;4315512;82;28492;-88
2022/10/19 02:52:03;;;;;;;8.88;6.33;;;;;;;17.83;100.00;99753.94;4307432;81;28508;-89
2022/10/19 02:58:07;;;;;;;10.82;7.15;;;;;;;17.92;100.00;99762.45;4336746;81;28927;-89
2022/10/19 03:04:08;;;;;;;8.58;5.95;;;;;;;18.05;100.00;99751.66;4279604;82;28535;-89
2022/10/19 03:10:09;;;;;;;12.03;7.47;;;;;;;18.11;100.00;99757.94;4304433;81;28523;-88
2022/10/19 03:16:12;;;;;;;11.55;7.25;;;;;;;18.00;100.00;99754.33;4296346;82;28550;-89
2022/10/19 03:22:16;;;;;;;11.08;8.55;;;;;;;17.79;100.00;99762.88;4298853;82;28488;-87
2022/10/19 03:28:17;;;;;;;11.85;9.00;;;;;;;17.89;100.00;99767.59;4309070;82;28537;-86
2022/10/19 03:34:18;;;;;;;13.13;8.93;;;;;;;17.81;100.00;99758.83;4314329;82;28516;-87
2022/10/19 03:40:20;;;;;;;14.33;10.00;;;;;;;17.86;100.00;99755.33;4328053;81;28511;-86
2022/10/19 03:46:22;;;;;;;16.05;10.70;;;;;;;17.64;100.00;99754.91;4270329;81;28495;-85
2022/10/19 03:52:23;;;;;;;15.63;10.98;;;;;;;17.60;100.00;99748.37;4270822;81;28498;-87
2022/10/19 03:58:24;;;;;;;20.02;13.65;;;;;;;17.56;100.00;99759.46;4175827;84;28512;-86
2022/10/19 04:04:26;;;;;;;17.90;12.35;;;;;;;17.51;100.00;99754.80;4307515;81;28496;-87
2022/10/19 04:10:30;;;;;;;17.00;12.35;;;;;;;17.41;100.00;99736.52;4255382;82;28503;-87
2022/10/19 04:16:34;;;;;;;18.15;12.88;;;;;;;17.12;100.00;99744.13;4283545;81;28516;-89
2022/10/19 04:22:36;;;;;;;22.07;13.65;;;;;;;17.28;100.00;99734.22;4284162;82;28536;-87
2022/10/19 04:28:37;;;;;;;17.52;12.55;;;;;;;16.97;100.00;99733.91;4263822;82;28550;-88
2022/10/19 04:34:43;;;;;;;20.88;13.98;;;;;;;16.82;100.00;99744.11;4243788;82;28517;-87
2022/10/19 04:40:46;;;;;;;18.20;12.40;;;;;;;16.36;100.00;99738.41;4245693;83;28594;-87
2022/10/19 04:46:50;;;;;;;19.65;12.75;;;;;;;16.20;100.00;99742.82;4268584;82;28562;-87
2022/10/19 04:52:51;;;;;;;18.45;12.85;;;;;;;16.13;100.00;99745.72;4290366;82;28470;-90
2022/10/19 04:58:57;;;;;;;17.50;11.93;;;;;;;15.89;100.00;99739.66;4297824;81;28528;-85
2022/10/19 05:04:58;;;;;;;18.50;12.87;;;;;;;15.85;100.00;99724.41;4284559;82;28539;-88
2022/10/19 05:11:06;;;;;;;20.70;12.82;;;;;;;15.89;100.00;99733.71;4282278;82;28551;-88
2022/10/19 05:17:08;;;;;;;19.60;12.53;;;;;;;16.00;100.00;99737.40;4203229;83;28556;-86
2022/10/19 05:23:10;;;;;;;21.07;13.70;;;;;;;15.87;100.00;99736.38;4208546;82;28495;-87
2022/10/19 05:29:14;;;;;;;22.45;14.00;;;;;;;15.84;100.00;99736.34;4305152;83;28558;-87
2022/10/19 05:35:15;;;;;;;18.07;12.63;;;;;;;15.94;100.00;99743.01;4269667;83;28540;-88
2022/10/19 05:41:18;;;;;;;17.65;12.15;;;;;;;15.88;100.00;99734.78;4280027;83;28524;-88
2022/10/19 05:47:24;;;;;;;17.77;11.65;;;;;;;15.74;100.00;99739.73;4308177;80;28523;-86
2022/10/19 05:53:30;;;;;;;17.50;11.05;;;;;;;15.99;100.00;99747.16;4217887;83;28517;-85
2022/10/19 05:59:32;;;;;;;19.35;12.07;;;;;;;16.05;100.00;99743.98;4257701;81;28659;-83
2022/10/19 06:05:36;;;;;;;16.35;10.58;;;;;;;15.98;100.00;99744.14;4235311;83;28552;-84
2022/10/19 06:11:41;;;;;;;17.07;11.60;;;;;;;15.78;100.00;99760.91;4335210;82;28500;-87
2022/10/19 06:17:42;;;;;;;18.23;11.30;;;;;;;15.70;100.00;99768.38;4330705;82;28500;-86
2022/10/19 06:23:44;;;;;;;18.92;11.60;;;;;;;15.55;100.00;99783.86;4287165;80;28458;-86
2022/10/19 06:29:45;;;;;;;17.92;11.35;;;;;;;15.46;100.00;99788.05;4296317;80;28530;-87
2022/10/19 06:35:47;;;;;;;15.90;10.40;;;;;;;15.73;100.00;99777.40;4336677;80;28519;-86
2022/10/19 06:41:48;;;;;;;13.18;9.63;;;;;;;15.77;100.00;99776.34;4309322;82;28471;-88
2022/10/19 06:47:52;;;;;;;15.83;10.40;;;;;;;15.92;100.00;99781.21;4315103;81;28568;-82
2022/10/19 06:53:56;;;;;;;17.25;11.30;;;;;;;15.96;100.00;99788.31;4311606;81;28540;-84
2022/10/19 07:00:00;;;;;;;18.10;12.15;;;;;;;16.09;100.00;99787.99;4329278;81;28558;-85
2022/10/19 07:06:20;;;;;;;17.75;10.98;;;;;;;16.48;100.00;99802.08;4206434;83;28525;-83
2022/10/19 07:12:29;;;;;;;14.28;8.58;;;;;;;16.79;100.00;99803.81;4192849;83;28580;-81
2022/10/19 07:18:43;;;;;;;13.85;8.58;;;;;;;17.08;100.00;99796.83;4304790;81;28579;-82
2022/10/19 07:24:46;;;;;;;11.85;8.18;;;;;;;17.46;100.00;99806.42;4298525;81;28548;-82
2022/10/19 07:30:50;;;;;;;13.62;9.13;;;;;;;17.63;100.00;99814.45;4306061;82;28535;-83
2022/10/19 07:37:07;;;;;;;16.73;9.43;;;;;;;17.77;100.00;99811.28;4282790;81;28594;-81
2022/10/19 07:43:23;;;;;;;13.43;9.05;;;;;;;17.72;100.00;99811.26;4312259;81;28614;-82
2022/10/19 07:49:24;;;;;;;18.05;11.60;;;;;;;17.52;100.00;99829.03;4260600;83;28547;-82
2022/10/19 07:55:25;;;;;;;19.30;12.10;;;;;;;17.42;100.00;99822.95;4293982;83;28523;-81
2022/10/19 08:01:32;;;;;;;14.70;10.18;;;;;;;17.82;100.00;99818.94;4275152;83;28488;-81
2022/10/19 08:07:33;;;;;;;16.70;9.38;;;;;;;17.96;100.00;99818.48;4238765;83;29021;-81
2022/10/19 08:13:35;;;;;;;13.22;8.45;;;;;;;17.39;100.00;99813.95;4290494;82;28547;-81
2022/10/19 08:20:05;;;;;;;15.15;9.15;;;;;;;17.61;99.00;99813.89;4299158;81;28532;-84
2022/10/19 08:26:07;;;;;;;12.65;8.10;;;;;;;17.51;97.52;99818.69;4282625;81;28542;-81
2022/10/19 08:32:08;;;;;;;12.03;7.30;;;;;;;17.95;94.22;99805.44;4252544;81;28520;-81
2022/10/19 08:38:09;;;;;;;12.10;7.75;;;;;;;17.60;92.76;99810.90;4302319;83;28583;-82
2022/10/19 08:44:34;;;;;;;12.05;6.85;;;;;;;17.77;92.67;99802.59;4274830;83;28542;-81
2022/10/19 08:50:42;;;;;;;10.60;6.42;;;;;;;17.63;91.60;99819.05;4244485;83;28572;-82
2022/10/19 08:57:09;;;;;;;10.32;6.50;;;;;;;18.04;87.97;99807.16;4234967;82;28539;-82
2022/10/19 09:03:33;;;;;;;11.35;6.97;;;;;;;17.88;82.48;99800.76;4196382;83;28585;-80
2022/10/19 09:09:40;;;;;;;11.25;6.08;;;;;;;17.80;81.63;99799.88;4219681;83;28589;-83
2022/10/19 09:15:45;;;;;;;7.67;4.80;;;;;;;16.54;83.93;99813.81;4207083;84;28558;-83
2022/10/19 09:21:52;;;;;;;6.85;4.08;;;;;;;16.93;80.68;99807.48;4229580;84;42805;-83
2022/10/19 09:28:02;;;;;;;8.65;4.15;;;;;;;16.42;77.67;99817.47;4219364;84;28503;-82
2022/10/19 09:34:14;;;;;;;7.28;3.20;;;;;;;17.05;75.69;99823.68;4142156;84;28522;-83
2022/10/19 09:40:26;;;;;;;6.05;2.30;;;;;;;16.96;72.30;99821.91;4225461;84;28538;-84
2022/10/19 09:47:08;;;;;;;8.98;2.90;;;;;;;17.42;67.87;99826.50;4260900;80;28608;-83
2022/10/19 09:53:16;;;;;;;4.97;1.98;;;;;;;17.73;66.83;99820.50;4206513;83;28574;-84
2022/10/19 10:12:51;;;;;;;5.45;2.42;;;;;;;17.38;64.88;99828.08;3701674;89;28588;-82
2022/10/19 10:26:14;;;;;;;;;;;;;;;;;;;;;
2022/10/19 10:39:25;;;;;;;6.33;1.80;;;;;;;18.06;62.02;99808.27;4229909;83;28494;-85
2022/10/19 10:45:52;;;;;;;4.58;1.98;;;;;;;17.12;61.04;99827.83;4221612;83;28538;-84
2022/10/19 10:52:30;;;;;;;3.55;1.65;;;;;;;17.69;61.10;99822.11;4162707;83;28511;-87
2022/10/19 10:59:25;;;;;;;4.80;1.75;;;;;;;17.33;60.46;99823.96;4203563;82;28545;-85
2022/10/19 11:05:15;;;;;;;6.25;1.80;;;;;;;17.36;60.85;99816.64;4217862;82;28542;-86
2022/10/19 11:11:19;;;;;;;4.53;1.27;;;;;;;17.48;59.31;99813.77;4225203;82;28568;-88
2022/10/19 11:17:28;;;;;;;3.12;0.95;;;;;;;18.03;57.06;99802.80;4258580;82;28533;-88
2022/10/19 11:31:41;;;;;;;2.52;1.20;;;;;;;17.25;53.98;99823.89;4239838;82;28574;-88
2022/10/19 11:38:24;;;;;;;4.72;1.30;;;;;;;17.32;54.62;99818.25;4096693;85;28560;-88
2022/10/19 11:44:52;;;;;;;4.65;1.30;;;;;;;16.92;55.75;99824.86;4170511;82;28541;-89
2022/10/19 11:51:02;;;;;;;3.08;1.20;;;;;;;17.17;55.53;99840.65;4243802;82;28947;-89
2022/10/19 11:57:17;;;;;;;3.37;1.10;;;;;;;16.82;55.62;99818.23;4228651;83;28580;-90
2022/10/19 12:03:59;;;;;;;2.27;1.10;;;;;;;17.14;55.80;99820.80;4244008;83;28533;-91
2022/10/19 12:10:24;;;;;;;1.77;1.10;;;;;;;16.78;56.55;99810.84;4233152;82;28520;-90
2022/10/19 12:16:42;;;;;;;3.83;1.30;;;;;;;17.70;54.85;99792.48;4301403;81;28549;-88
2022/10/19 12:22:45;;;;;;;4.95;1.70;;;;;;;17.69;55.51;99792.20;4292751;82;28528;-90
2022/10/19 12:28:53;;;;;;;4.62;1.65;;;;;;;17.36;56.40;99783.23;4298377;82;28518;-87
2022/10/19 12:35:18;;;;;;;6.83;1.77;;;;;;;17.43;56.99;99777.02;4297354;82;28552;-84
2022/10/19 12:41:53;;;;;;;5.22;1.60;;;;;;;17.91;56.68;99773.05;4292279;81;28520;-83
2022/10/19 12:48:18;;;;;;;3.20;1.10;;;;;;;18.28;57.00;99773.28;4277846;81;28589;-83
2022/10/19 12:54:48;;;;;;;4.03;1.30;;;;;;;17.48;57.50;99790.67;4298880;81;28672;-82
2022/10/19 13:01:04;;;;;;;4.00;1.57;;;;;;;17.50;57.73;99776.83;4289866;82;28563;-82
2022/10/19 13:07:07;;;;;;;4.47;1.47;;;;;;;17.06;59.04;99779.13;4256561;81;28526;-81
2022/10/19 13:13:17;;;;;;;5.78;1.70;;;;;;;17.56;58.38;99788.01;4315961;82;28571;-82
2022/10/19 13:19:20;;;;;;;5.40;1.60;;;;;;;17.41;58.78;99796.33;4306123;81;28508;-81
2022/10/19 13:25:26;;;;;;;6.72;1.92;;;;;;;17.26;58.67;99795.64;4315710;81;28555;-82
2022/10/19 13:31:30;;;;;;;;;;;;;;;17.18;59.17;99786.59;4339923;81;28512;-82
2022/10/19 13:37:31;;;;;;;4.85;1.60;;;;;;;17.33;59.29;99786.44;4314122;82;20214;-82
2022/10/19 13:43:50;;;;;;;7.80;1.80;;;;;;;17.03;59.34;99789.97;4302586;82;28540;-82
2022/10/19 13:50:28;;;;;;;4.78;1.65;;;;;;;17.38;58.74;99791.94;4267385;82;28461;-82
2022/10/19 13:56:46;;;;;;;5.45;1.72;;;;;;;17.34;59.22;99805.22;4217995;83;28535;-83
2022/10/19 14:03:33;;;;;;;6.43;1.87;;;;;;;17.28;59.53;99804.34;4261458;81;28496;-82
2022/10/19 14:10:12;;;;;;;5.97;1.80;;;;;;;16.78;60.64;99807.60;4232358;81;28468;-82
2022/10/19 14:16:19;;;;;;;5.25;2.12;;;;;;;16.50;62.10;99794.49;4258495;82;28560;-81
2022/10/19 14:22:29;;;;;;;6.03;2.08;;;;;;;16.89;61.90;99795.50;4243024;83;28559;-82
2022/10/19 14:28:31;;;;;;;4.62;2.02;;;;;;;16.76;62.29;99786.64;4239232;83;28544;-85
2022/10/19 14:34:35;;;;;;;5.28;2.20;;;;;;;16.68;62.45;99785.76;4184379;83;28521;-85
2022/10/19 14:40:40;;;;;;;6.08;2.33;;;;;;;16.77;62.60;99782.88;4212891;83;28524;-84
2022/10/19 14:46:47;;;;;;;3.87;2.10;;;;;;;16.81;62.79;99775.86;4196010;82;28540;-82
2022/10/19 14:52:55;;;;;;;6.97;2.08;;;;;;;16.53;63.03;99787.20;4158253;83;28567;-87
2022/10/19 14:59:03;;;;;;;4.12;2.10;;;;;;;16.56;63.08;99786.71;4158018;83;28600;-86
2022/10/19 15:05:08;;;;;;;7.33;2.12;;;;;;;16.62;63.32;99785.40;4024057;87;28549;-84
2022/10/19 15:11:45;;;;;;;7.05;2.20;;;;;;;16.42;63.60;99790.33;4021551;86;28747;-84
2022/10/19 15:18:02;;;;;;;6.50;2.17;;;;;;;16.43;63.76;99779.75;4143010;83;28654;-85
2022/10/19 15:24:26;;;;;;;8.20;2.23;;;;;;;16.41;63.98;99795.48;4029613;86;28592;-85
2022/10/19 15:30:35;;;;;;;6.03;2.42;;;;;;;16.29;65.01;99791.52;4198003;83;28560;-85
2022/10/19 15:59:42;;;;;;;8.98;3.45;;;;;;;15.72;68.89;99825.08;3965326;86;28532;-84
2022/10/19 16:06:22;;;;;;;7.22;3.05;;;;;;;15.65;70.35;99830.66;3839856;91;28566;-85
2022/10/19 16:12:30;;;;;;;7.90;3.60;;;;;;;15.71;70.46;99834.28;3879243;83;28591;-86
2022/10/19 16:18:35;;;;;;;9.60;4.40;;;;;;;15.37;71.72;99839.11;4209396;83;28497;-85
2022/10/19 16:24:37;;;;;;;10.28;4.83;;;;;;;15.50;72.09;99842.58;4159718;82;28483;-85
2022/10/19 16:30:40;;;;;;;11.75;5.50;;;;;;;15.17;74.56;99862.59;4183984;82;28576;-87
2022/10/19 16:36:45;;;;;;;11.55;5.90;;;;;;;15.48;74.21;99875.36;4211790;82;28560;-91
2022/10/19 16:42:48;;;;;;;12.43;6.20;;;;;;;15.33;75.00;99870.48;4182706;82;28478;-86
2022/10/19 16:48:51;;;;;;;9.98;4.85;;;;;;;15.36;76.22;99863.20;4189869;84;28474;-86
2022/10/19 16:54:59;;;;;;;8.23;4.42;;;;;;;15.31;75.50;99864.48;4116637;85;28574;-83
2022/10/19 17:01:18;;;;;;;7.00;3.72;;;;;;;15.14;76.58;99874.72;4315144;82;28545;-85
2022/10/19 17:07:22;;;;;;;6.72;3.58;;;;;;;15.21;75.36;99885.96;4276712;81;28493;-85
2022/10/19 17:13:27;;;;;;;5.85;3.02;;;;;;;15.15;75.89;99890.42;4309761;82;28567;-85
2022/10/19 17:19:28;;;;;;;5.97;3.40;;;;;;;14.96;77.17;99893.84;4292011;81;28503;-80
2022/10/19 17:25:32;;;;;;;5.15;2.90;;;;;;;14.78;78.77;99901.89;4306613;81;28536;-86
2022/10/19 17:31:36;;;;;;;6.12;2.83;;;;;;;14.37;81.03;99913.11;4296432;82;28528;-90
2022/10/19 17:37:45;;;;;;;5.62;2.90;;;;;;;14.90;79.96;99908.64;4186416;82;28532;-88
2022/10/19 17:43:55;;;;;;;5.43;2.83;;;;;;;14.57;82.06;99926.28;4247333;82;28524;-83
2022/10/19 17:49:59;;;;;;;6.22;2.77;;;;;;;14.60;84.23;99937.17;4302856;82;28492;-84
2022/10/19 17:56:04;;;;;;;5.45;2.42;;;;;;;13.16;100.00;99963.45;4317943;81;28536;-83
2022/10/19 18:02:11;;;;;;;6.33;2.50;;;;;;;13.89;100.00;99960.89;4181666;84;28561;-85
2022/10/19 18:08:13;;;;;;;5.83;2.45;;;;;;;14.06;100.00;99965.94;4118619;86;28509;-83
2022/10/19 18:14:16;;;;;;;4.22;2.12;;;;;;;13.44;100.00;99967.48;4086627;87;28542;-83
2022/10/19 18:20:24;;;;;;;6.50;2.87;;;;;;;13.84;100.00;99969.69;4105177;85;28590;-82
2022/10/19 18:26:29;;;;;;;7.75;2.92;;;;;;;14.10;100.00;99966.28;4089591;86;28485;-87
2022/10/19 18:32:41;;;;;;;7.22;3.33;;;;;;;14.19;100.00;99966.79;4175099;84;28543;-88
2022/10/19 18:38:55;;;;;;;5.97;3.05;;;;;;;14.28;100.00;99964.56;4146265;84;28555;-78
2022/10/19 18:44:57;;;;;;;8.03;3.60;;;;;;;14.31;100.00;99965.44;4155113;83;28587;-81
2022/10/19 18:51:03;;;;;;;7.62;3.83;;;;;;;13.96;100.00;99981.91;4161346;83;28524;-80
2022/10/19 18:57:05;;;;;;;7.62;3.80;;;;;;;13.37;100.00;99986.48;4166432;81;28569;-80
2022/10/19 19:03:06;;;;;;;7.00;3.90;;;;;;;13.44;100.00;99985.05;4314340;81;28596;-80
2022/10/19 19:09:10;;;;;;;9.10;5.05;;;;;;;13.18;100.00;99993.77;4260804;83;28495;-81
2022/10/19 19:15:20;;;;;;;10.48;4.90;;;;;;;12.93;100.00;99995.98;4247206;83;28558;-83
2022/10/19 19:21:27;;;;;;;9.80;5.03;;;;;;;12.91;100.00;100002.98;4203715;83;28515;-82
2022/10/19 19:27:33;;;;;;;8.20;4.50;;;;;;;12.91;100.00;100008.88;4285536;82;28534;-88
2022/10/19 19:33:39;;;;;;;9.08;4.58;;;;;;;12.95;100.00;100008.22;4261206;82;28535;-81
2022/10/19 19:39:41;;;;;;;8.45;4.50;;;;;;;12.95;100.00;100012.27;4259435;81;28599;-89
2022/10/19 19:45:54;;;;;;;8.08;5.15;;;;;;;12.93;100.00;100017.07;4304057;80;28567;-75
2022/10/19 19:51:56;;;;;;;9.83;4.80;;;;;;;13.14;100.00;100030.35;4291481;82;28488;-85
2022/10/19 19:57:59;;;;;;;8.68;5.37;;;;;;;13.11;100.00;100030.27;4336302;80;28543;-89
2022/10/19 20:04:01;;;;;;;9.40;5.10;;;;;;;13.16;100.00;100027.73;4316094;82;28511;-85
2022/10/19 20:10:05;;;;;;;12.58;6.33;;;;;;;13.29;100.00;100031.34;4267830;82;28522;-85
2022/10/19 20:16:21;;;;;;;9.18;6.05;;;;;;;13.48;100.00;100036.23;4326276;82;28610;-84
2022/10/19 20:22:24;;;;;;;11.20;6.12;;;;;;;13.41;100.00;100031.42;4274252;82;28499;-84
2022/10/19 20:28:27;;;;;;;10.88;6.67;;;;;;;12.90;100.00;100042.33;4274032;82;28511;-86
2022/10/19 20:34:29;;;;;;;10.68;6.58;;;;;;;12.72;100.00;100050.66;4250793;82;28502;-84
2022/10/19 20:40:32;;;;;;;10.03;6.08;;;;;;;12.59;100.00;100052.13;4275247;82;28518;-84
2022/10/19 20:46:35;;;;;;;13.53;5.85;;;;;;;12.49;100.00;100058.84;4274624;82;28502;-83
2022/10/19 20:52:37;;;;;;;10.75;6.00;;;;;;;12.21;100.00;100061.39;4272952;81;28510;-84
2022/10/19 20:58:41;;;;;;;9.53;6.08;;;;;;;12.19;100.00;100051.89;4274851;81;28529;-85
2022/10/19 21:04:42;;;;;;;9.28;5.87;;;;;;;12.02;100.00;100058.26;4287189;83;28499;-85
2022/10/19 21:10:45;;;;;;;10.68;6.30;;;;;;;11.82;100.00;100072.68;4239826;83;28577;-86
2022/10/19 21:16:46;;;;;;;11.48;5.85;;;;;;;11.81;100.00;100070.49;4231339;82;28488;-88
2022/10/19 21:22:50;;;;;;;13.28;7.08;;;;;;;11.85;100.00;100074.94;4234885;83;28511;-87
2022/10/19 21:28:52;;;;;;;10.48;6.42;;;;;;;11.69;100.00;100077.59;4193581;84;28571;-86
2022/10/19 21:34:53;;;;;;;12.00;6.78;;;;;;;11.35;100.00;100076.84;4174333;83;28524;-87
2022/10/19 21:40:59;;;;;;;9.50;6.25;;;;;;;11.41;100.00;100080.89;4266795;81;28546;-87
2022/10/19 21:47:01;;;;;;;11.25;6.40;;;;;;;11.38;100.00;100082.64;4265184;82;28520;-82
2022/10/19 21:53:02;;;;;;;10.50;5.95;;;;;;;11.69;100.00;100070.86;4289319;81;28449;-82
2022/10/19 21:59:05;;;;;;;9.88;5.75;;;;;;;11.38;100.00;100073.21;4288334;82;28511;-83
2022/10/19 22:05:07;;;;;;;10.60;5.83;;;;;;;11.51;100.00;100080.97;4308349;80;28502;-83
2022/10/19 22:11:11;;;;;;;10.93;5.85;;;;;;;11.25;100.00;100077.29;4285671;81;28504;-85
2022/10/19 22:17:15;;;;;;;10.70;6.60;;;;;;;11.35;100.00;100077.69;4305661;81;28507;-86
2022/10/19 22:23:17;;;;;;;14.98;7.97;;;;;;;11.79;100.00;100080.66;4220296;82;28564;-85
2022/10/19 22:29:18;;;;;;;15.72;8.75;;;;;;;11.68;100.00;100089.41;4253472;83;28479;-83
2022/10/19 22:35:21;;;;;;;7.62;4.70;;;;;;;11.68;100.00;100089.41;4285327;81;28524;-83
2022/10/19 22:41:25;;;;;;;10.75;7.20;;;;;;;11.21;100.00;100097.60;4253385;83;28525;-82
2022/10/19 22:47:26;;;;;;;10.45;6.50;;;;;;;11.42;100.00;100091.13;4270289;83;28620;-83
2022/10/19 22:53:27;;;;;;;8.65;5.28;;;;;;;11.44;100.00;100087.20;4255186;82;28494;-82
2022/10/19 22:59:29;;;;;;;6.45;3.75;;;;;;;11.29;100.00;100096.02;4306331;81;28523;-83
2022/10/19 23:05:30;;;;;;;8.55;5.35;;;;;;;11.35;100.00;100099.22;4279972;80;28538;-83
2022/10/19 23:11:31;;;;;;;9.53;5.58;;;;;;;11.67;100.00;100094.50;4237435;80;28467;-83
2022/10/19 23:17:33;;;;;;;9.83;6.05;;;;;;;11.77;100.00;100092.69;4307769;82;29026;-82
2022/10/19 23:23:35;;;;;;;8.85;5.67;;;;;;;11.83;100.00;100098.05;4308023;82;28549;-83
2022/10/19 23:29:37;;;;;;;8.20;5.40;;;;;;;11.77;100.00;100109.69;4302776;82;28492;-83
2022/10/19 23:35:38;;;;;;;10.93;4.08;;;;;;;11.62;100.00;100108.59;4301223;82;28524;-84
2022/10/19 23:41:41;;;;;;;7.35;3.45;;;;;;;11.45;100.00;100114.93;4327779;81;28571;-83
2022/10/19 23:47:42;;;;;;;3.83;2.40;;;;;;;11.50;100.00;100119.19;4315891;81;28585;-84
2022/10/19 23:53:46;;;;;;;7.35;2.30;;;;;;;10.84;100.00;100128.44;4288469;82;28523;-85
2022/10/19 23:59:47;;;;;;;7.12;3.15;;;;;;;10.53;100.00;100134.41;4320545;81;28504;-84
